Time;durP1;ratioP1;P1;durP2;ratioP2;P2;SDS_P1;SDS_P2;PMS_P1;PMS_P2;Temp;Humidity;BMP_temperature;BMP_pressure;BME280_temperature;BME280_humidity;BME280_pressure;Samples;Min_cycle;Max_cycle;Signal;HPM_P1;HPM_P2
2021/03/20 00:01:55;;;;;;;0.93;0.60;;;;;;;;;;5083614;28;20044;-65
2021/03/20 00:04:20;;;;;;;1.30;0.75;;;;;;;;;;5083888;28;20072;-65
2021/03/20 00:06:49;;;;;;;0.82;0.55;;;;;;;;;;5083231;28;20040;-65
2021/03/20 00:09:16;;;;;;;0.70;0.70;;;;;;;;;;5058224;28;20094;-64
2021/03/20 00:11:42;;;;;;;1.73;0.73;;;;;;;;;;5075785;28;20579;-65
2021/03/20 00:14:08;;;;;;;0.50;0.50;;;;;;;;;;5065446;28;20037;-66
2021/03/20 00:16:36;;;;;;;1.77;0.80;;;;;;;;;;5048845;28;20049;-64
2021/03/20 00:19:01;;;;;;;1.10;0.80;;;;;;;;;;5082102;28;20074;-64
2021/03/20 00:21:27;;;;;;;1.15;0.77;;;;;;;;;;5065051;28;20045;-64
2021/03/20 00:23:52;;;;;;;1.13;0.80;;;;;;;;;;5083282;28;20074;-65
2021/03/20 00:26:18;;;;;;;1.00;0.70;;;;;;;;;;5084127;28;20036;-63
2021/03/20 00:28:44;;;;;;;1.70;0.85;;;;;;;;;;5084171;28;20040;-64
2021/03/20 00:31:10;;;;;;;1.30;0.60;;;;;;;;;;5084064;28;20044;-65
2021/03/20 00:33:37;;;;;;;1.23;0.60;;;;;;;;;;5074064;28;20435;-64
2021/03/20 00:36:03;;;;;;;1.13;0.70;;;;;;;;;;5082358;28;20112;-66
2021/03/20 00:38:29;;;;;;;1.50;0.63;;;;;;;;;;5082509;28;20098;-64
2021/03/20 00:40:55;;;;;;;1.30;0.70;;;;;;;;;;5074860;28;20040;-65
2021/03/20 00:43:20;;;;;;;1.38;0.80;;;;;;;;;;5083057;28;20047;-66
2021/03/20 00:45:46;;;;;;;1.15;0.70;;;;;;;;;;5081958;28;20534;-65
2021/03/20 00:48:20;;;;;;;1.75;0.82;;;;;;;;;;5083640;28;20048;-64
2021/03/20 00:50:45;;;;;;;0.60;0.60;;;;;;;;;;5082193;28;20040;-63
2021/03/20 00:53:16;;;;;;;0.88;0.68;;;;;;;;;;5085252;28;20066;-64
2021/03/20 00:55:42;;;;;;;0.80;0.70;;;;;;;;;;5086998;28;20548;-64
2021/03/20 00:58:23;;;;;;;1.95;0.75;;;;;;;;;;5077988;28;20071;-65
2021/03/20 01:00:49;;;;;;;0.80;0.70;;;;;;;;;;5077754;28;20072;-64
2021/03/20 01:03:15;;;;;;;0.90;0.70;;;;;;;;;;5086720;28;20028;-65
2021/03/20 01:05:40;;;;;;;1.60;0.80;;;;;;;;;;5068597;28;20804;-65
2021/03/20 01:08:06;;;;;;;1.10;0.70;;;;;;;;;;5077146;28;20052;-65
2021/03/20 01:10:31;;;;;;;1.27;0.60;;;;;;;;;;5087008;28;20358;-64
2021/03/20 01:12:57;;;;;;;1.52;0.80;;;;;;;;;;5086726;28;20095;-65
2021/03/20 01:15:22;;;;;;;1.50;0.63;;;;;;;;;;5086793;28;20650;-64
2021/03/20 01:17:48;;;;;;;0.98;0.70;;;;;;;;;;5086597;28;20060;-63
2021/03/20 01:20:13;;;;;;;1.42;0.80;;;;;;;;;;5086509;28;20453;-64
2021/03/20 01:22:39;;;;;;;1.42;0.70;;;;;;;;;;5078058;28;20132;-64
2021/03/20 01:25:06;;;;;;;1.20;0.80;;;;;;;;;;5077459;28;20136;-64
2021/03/20 01:27:31;;;;;;;1.40;0.80;;;;;;;;;;5084424;28;20118;-65
2021/03/20 01:29:57;;;;;;;1.85;0.70;;;;;;;;;;5068170;28;20102;-64
2021/03/20 01:32:22;;;;;;;1.35;0.80;;;;;;;;;;5084764;28;20105;-65
2021/03/20 01:34:47;;;;;;;1.25;0.70;;;;;;;;;;5067601;28;20497;-63
2021/03/20 01:37:13;;;;;;;1.40;0.80;;;;;;;;;;5075649;28;20048;-65
2021/03/20 01:39:38;;;;;;;1.67;0.90;;;;;;;;;;5086078;28;20044;-64
2021/03/20 01:42:07;;;;;;;2.05;0.85;;;;;;;;;;5086139;28;20478;-64
2021/03/20 01:44:33;;;;;;;1.05;0.70;;;;;;;;;;5085594;28;20120;-64
2021/03/20 01:46:58;;;;;;;0.98;0.80;;;;;;;;;;5085634;28;20334;-64
2021/03/20 01:49:43;;;;;;;2.00;1.00;;;;;;;;;;5060649;28;20037;-63
2021/03/20 01:52:12;;;;;;;1.15;0.63;;;;;;;;;;5084435;28;20105;-64
2021/03/20 01:54:43;;;;;;;1.15;0.77;;;;;;;;;;5085242;28;20059;-64
2021/03/20 01:57:08;;;;;;;1.23;0.70;;;;;;;;;;5077180;28;20091;-65
2021/03/20 01:59:34;;;;;;;1.75;0.80;;;;;;;;;;5085246;28;20052;-63
2021/03/20 02:01:59;;;;;;;1.65;0.60;;;;;;;;;;5080027;28;20388;-64
2021/03/20 02:04:33;;;;;;;1.50;0.70;;;;;;;;;;5085245;28;20474;-65
2021/03/20 02:06:59;;;;;;;1.27;0.73;;;;;;;;;;5085542;28;20058;-65
2021/03/20 02:09:25;;;;;;;1.63;0.77;;;;;;;;;;5085127;28;21184;-64
2021/03/20 02:12:11;;;;;;;1.88;0.77;;;;;;;;;;5058874;28;20041;-65
2021/03/20 02:15:02;;;;;;;2.10;0.80;;;;;;;;;;5060491;28;20045;-65
2021/03/20 02:17:45;;;;;;;1.17;0.82;;;;;;;;;;5073949;28;20057;-65
2021/03/20 02:20:29;;;;;;;1.35;0.77;;;;;;;;;;5077969;28;20044;-66
2021/03/20 02:23:16;;;;;;;0.98;0.70;;;;;;;;;;5085321;28;20048;-67
2021/03/20 02:26:19;;;;;;;2.15;1.00;;;;;;;;;;5060487;28;20053;-64
2021/03/20 02:29:12;;;;;;;0.80;0.60;;;;;;;;;;5084991;28;20044;-66
2021/03/20 02:32:05;;;;;;;1.52;0.80;;;;;;;;;;5084802;28;20047;-64
2021/03/20 02:34:34;;;;;;;1.33;0.80;;;;;;;;;;5084551;28;20052;-66
2021/03/20 02:37:05;;;;;;;1.60;0.90;;;;;;;;;;5085027;28;20075;-65
2021/03/20 02:39:41;;;;;;;1.65;0.80;;;;;;;;;;5077948;28;20052;-65
2021/03/20 02:42:18;;;;;;;1.17;0.75;;;;;;;;;;5074281;28;20041;-64
2021/03/20 02:45:07;;;;;;;1.17;0.90;;;;;;;;;;5071892;28;20044;-65
2021/03/20 02:47:36;;;;;;;1.55;0.93;;;;;;;;;;5083254;28;20151;-64
2021/03/20 02:50:07;;;;;;;2.42;0.82;;;;;;;;;;5077425;28;20917;-63
2021/03/20 02:52:32;;;;;;;1.42;0.90;;;;;;;;;;5074867;28;20056;-63
2021/03/20 02:55:12;;;;;;;1.13;0.90;;;;;;;;;;5084546;28;20052;-64
2021/03/20 02:57:42;;;;;;;0.80;0.63;;;;;;;;;;5083180;28;20044;-64
2021/03/20 03:00:12;;;;;;;1.08;0.80;;;;;;;;;;5058679;28;20051;-65
2021/03/20 03:02:39;;;;;;;1.38;0.80;;;;;;;;;;5033137;28;20071;-67
2021/03/20 03:05:13;;;;;;;1.08;0.70;;;;;;;;;;5059478;28;20067;-64
2021/03/20 03:07:43;;;;;;;1.20;0.77;;;;;;;;;;5075551;28;20052;-64
2021/03/20 03:10:15;;;;;;;1.73;0.80;;;;;;;;;;5075933;28;20083;-63
2021/03/20 03:12:46;;;;;;;1.73;0.80;;;;;;;;;;5083626;28;20040;-64
2021/03/20 03:15:31;;;;;;;1.63;1.10;;;;;;;;;;5066313;28;20048;-64
2021/03/20 03:18:18;;;;;;;1.02;0.70;;;;;;;;;;5067072;28;20044;-64
2021/03/20 03:20:49;;;;;;;1.30;0.77;;;;;;;;;;5066891;28;20045;-64
2021/03/20 03:23:19;;;;;;;1.25;0.80;;;;;;;;;;5066250;28;20068;-63
2021/03/20 03:25:46;;;;;;;0.73;0.65;;;;;;;;;;5079086;28;20047;-63
2021/03/20 03:28:16;;;;;;;1.40;0.80;;;;;;;;;;5059327;28;20599;-65
2021/03/20 03:30:41;;;;;;;1.70;0.90;;;;;;;;;;5079826;28;20090;-64
2021/03/20 03:33:15;;;;;;;1.38;0.85;;;;;;;;;;5083831;28;20459;-64
2021/03/20 03:35:48;;;;;;;2.17;1.05;;;;;;;;;;5079054;28;20040;-65
2021/03/20 03:38:25;;;;;;;2.42;1.00;;;;;;;;;;5049661;28;20060;-63
2021/03/20 03:41:06;;;;;;;1.48;0.88;;;;;;;;;;5060267;28;20135;-65
2021/03/20 03:43:31;;;;;;;1.30;0.85;;;;;;;;;;5084087;28;20048;-64
2021/03/20 03:45:57;;;;;;;1.05;0.88;;;;;;;;;;5082716;28;20076;-65
2021/03/20 03:48:24;;;;;;;2.22;0.90;;;;;;;;;;5083109;28;20048;-64
2021/03/20 03:50:50;;;;;;;1.83;0.98;;;;;;;;;;5077371;28;20072;-63
2021/03/20 03:53:17;;;;;;;1.90;0.80;;;;;;;;;;5082914;28;20044;-64
2021/03/20 03:55:42;;;;;;;1.95;0.70;;;;;;;;;;5059963;28;20102;-64
2021/03/20 03:58:36;;;;;;;1.13;0.80;;;;;;;;;;5078739;28;20094;-64
2021/03/20 04:01:21;;;;;;;1.02;0.70;;;;;;;;;;5075517;28;20063;-67
2021/03/20 04:04:01;;;;;;;1.58;0.80;;;;;;;;;;5099537;28;20056;-65
2021/03/20 04:06:32;;;;;;;0.80;0.70;;;;;;;;;;5083508;28;20064;-65
2021/03/20 04:09:04;;;;;;;1.60;0.90;;;;;;;;;;5073089;28;20521;-64
2021/03/20 04:11:38;;;;;;;1.38;0.77;;;;;;;;;;5065134;28;20071;-64
2021/03/20 04:14:10;;;;;;;1.90;0.80;;;;;;;;;;5074388;28;20044;-64
2021/03/20 04:16:45;;;;;;;1.13;0.85;;;;;;;;;;5078382;28;20082;-65
2021/03/20 04:19:35;;;;;;;2.05;0.88;;;;;;;;;;5075076;28;20129;-66
2021/03/20 04:22:09;;;;;;;2.35;0.95;;;;;;;;;;5075562;28;20751;-64
2021/03/20 04:24:44;;;;;;;1.75;0.82;;;;;;;;;;5066512;28;20045;-65
2021/03/20 04:27:10;;;;;;;1.15;0.77;;;;;;;;;;5079087;28;20055;-66
2021/03/20 04:30:00;;;;;;;1.17;0.73;;;;;;;;;;5085811;28;20411;-64
2021/03/20 04:32:32;;;;;;;1.90;1.00;;;;;;;;;;5086125;28;20497;-66
2021/03/20 04:35:09;;;;;;;;;;;;;;;;;;5064134;28;20091;-63
2021/03/20 04:37:37;;;;;;;1.45;0.90;;;;;;;;;;5063008;28;20382;-64
2021/03/20 04:40:04;;;;;;;1.95;1.10;;;;;;;;;;5060990;28;20037;-64
2021/03/20 04:42:32;;;;;;;1.65;0.90;;;;;;;;;;5085919;28;20194;-64
2021/03/20 04:45:00;;;;;;;1.95;1.00;;;;;;;;;;5047464;28;21128;-64
2021/03/20 04:47:27;;;;;;;2.35;1.10;;;;;;;;;;5078400;28;20526;-65
2021/03/20 04:49:58;;;;;;;1.65;0.90;;;;;;;;;;5079507;28;20044;-64
2021/03/20 04:52:28;;;;;;;1.27;0.97;;;;;;;;;;5060637;28;20068;-64
2021/03/20 04:54:53;;;;;;;1.48;0.90;;;;;;;;;;5078641;28;20040;-64
2021/03/20 04:57:32;;;;;;;2.55;1.20;;;;;;;;;;5085379;28;20044;-64
2021/03/20 05:00:44;;;;;;;1.63;0.90;;;;;;;;;;5085766;28;20055;-64
2021/03/20 05:03:24;;;;;;;2.90;1.20;;;;;;;;;;5081927;28;20060;-65
2021/03/20 05:05:55;;;;;;;1.30;0.90;;;;;;;;;;5086094;28;20550;-63
2021/03/20 05:08:42;;;;;;;2.10;0.82;;;;;;;;;;5062759;28;20098;-64
2021/03/20 05:11:13;;;;;;;1.25;0.90;;;;;;;;;;5086542;28;20040;-65
2021/03/20 05:13:41;;;;;;;1.38;0.98;;;;;;;;;;5085922;28;20044;-64
2021/03/20 05:16:15;;;;;;;2.35;1.13;;;;;;;;;;5076007;28;20550;-63
2021/03/20 05:18:42;;;;;;;2.38;1.20;;;;;;;;;;5081484;28;20139;-63
2021/03/20 05:21:23;;;;;;;1.15;0.90;;;;;;;;;;5086927;28;20048;-63
2021/03/20 05:23:48;;;;;;;1.45;0.85;;;;;;;;;;5069936;28;20043;-65
2021/03/20 05:26:14;;;;;;;1.05;0.90;;;;;;;;;;5052291;28;20060;-63
2021/03/20 05:28:39;;;;;;;2.03;0.90;;;;;;;;;;5086424;28;20079;-65
2021/03/20 05:31:05;;;;;;;1.85;0.98;;;;;;;;;;5085624;28;20071;-65
2021/03/20 05:33:32;;;;;;;1.92;1.10;;;;;;;;;;5078254;28;20083;-65
2021/03/20 05:35:57;;;;;;;2.63;0.90;;;;;;;;;;5060625;28;20048;-64
2021/03/20 05:38:23;;;;;;;1.73;0.90;;;;;;;;;;5078114;28;20037;-63
2021/03/20 05:40:48;;;;;;;2.47;1.13;;;;;;;;;;5081158;28;20406;-64
2021/03/20 05:43:30;;;;;;;2.10;0.90;;;;;;;;;;5085321;28;20036;-65
2021/03/20 05:46:12;;;;;;;3.10;1.15;;;;;;;;;;5066140;28;20045;-65
2021/03/20 05:48:40;;;;;;;2.40;1.10;;;;;;;;;;5061344;28;20052;-64
2021/03/20 05:51:13;;;;;;;2.08;1.10;;;;;;;;;;5060513;28;20045;-63
2021/03/20 05:53:42;;;;;;;1.67;0.80;;;;;;;;;;5075542;28;20486;-64
2021/03/20 05:56:15;;;;;;;1.48;0.85;;;;;;;;;;5077718;28;20123;-63
2021/03/20 05:59:11;;;;;;;2.47;1.05;;;;;;;;;;5067055;28;20048;-64
2021/03/20 06:01:43;;;;;;;2.35;1.08;;;;;;;;;;5085524;28;20044;-64
2021/03/20 06:04:30;;;;;;;1.35;1.10;;;;;;;;;;5077559;28;20094;-64
2021/03/20 06:07:27;;;;;;;2.30;1.17;;;;;;;;;;5085843;28;20075;-64
2021/03/20 06:09:52;;;;;;;1.60;0.82;;;;;;;;;;5084454;28;20054;-65
2021/03/20 06:12:21;;;;;;;1.30;0.90;;;;;;;;;;5086224;28;20426;-65
2021/03/20 06:15:12;;;;;;;1.35;0.95;;;;;;;;;;5085822;28;20048;-65
2021/03/20 06:17:46;;;;;;;1.60;0.90;;;;;;;;;;5084784;28;20049;-64
2021/03/20 06:20:23;;;;;;;1.67;1.02;;;;;;;;;;5085566;28;20036;-65
2021/03/20 06:23:07;;;;;;;1.55;0.90;;;;;;;;;;5085472;28;20044;-64
2021/03/20 06:25:51;;;;;;;1.38;0.93;;;;;;;;;;5085469;28;20079;-65
2021/03/20 06:28:17;;;;;;;2.60;0.90;;;;;;;;;;5078400;28;20047;-66
2021/03/20 06:30:50;;;;;;;1.77;1.02;;;;;;;;;;5057957;28;20040;-65
2021/03/20 06:33:36;;;;;;;2.42;1.00;;;;;;;;;;5060671;28;20047;-63
2021/03/20 06:36:05;;;;;;;1.63;1.15;;;;;;;;;;5084146;28;20060;-64
2021/03/20 06:38:46;;;;;;;1.95;1.17;;;;;;;;;;5083484;28;20047;-64
2021/03/20 06:41:27;;;;;;;2.80;1.30;;;;;;;;;;5083008;28;20067;-64
2021/03/20 06:43:55;;;;;;;2.60;1.30;;;;;;;;;;5057712;28;20051;-65
2021/03/20 06:46:26;;;;;;;2.13;1.30;;;;;;;;;;5075579;28;20094;-64
2021/03/20 06:48:52;;;;;;;2.42;1.42;;;;;;;;;;5066721;28;20052;-64
2021/03/20 06:51:17;;;;;;;2.95;1.52;;;;;;;;;;5049249;28;20056;-65
2021/03/20 06:53:57;;;;;;;2.33;1.30;;;;;;;;;;5084047;28;20074;-64
2021/03/20 06:56:23;;;;;;;2.42;1.30;;;;;;;;;;5066440;28;20052;-64
2021/03/20 06:58:48;;;;;;;2.50;1.20;;;;;;;;;;5083013;28;20048;-62
2021/03/20 07:01:29;;;;;;;2.72;1.35;;;;;;;;;;5078317;28;20041;-64
2021/03/20 07:04:08;;;;;;;1.52;0.90;;;;;;;;;;5066374;28;20044;-66
2021/03/20 07:07:12;;;;;;;1.92;1.02;;;;;;;;;;5076309;28;20037;-65
2021/03/20 07:09:39;;;;;;;3.30;1.23;;;;;;;;;;5072871;28;20600;-66
2021/03/20 07:12:04;;;;;;;1.52;1.00;;;;;;;;;;5077284;28;20048;-67
2021/03/20 07:14:42;;;;;;;2.03;1.08;;;;;;;;;;5084717;28;20040;-65
2021/03/20 07:17:31;;;;;;;1.90;0.80;;;;;;;;;;5083009;28;20044;-64
2021/03/20 07:20:01;;;;;;;1.10;0.70;;;;;;;;;;5083972;28;20049;-67
2021/03/20 07:22:36;;;;;;;2.03;1.10;;;;;;;;;;5084051;28;20036;-66
2021/03/20 07:25:23;;;;;;;0.85;0.70;;;;;;;;;;5084420;28;20054;-66
2021/03/20 07:27:49;;;;;;;2.88;0.90;;;;;;;;;;5079233;28;20040;-66
2021/03/20 07:30:34;;;;;;;1.17;0.85;;;;;;;;;;5059655;28;20044;-65
2021/03/20 07:32:59;;;;;;;1.52;0.90;;;;;;;;;;5075295;28;20131;-66
2021/03/20 07:35:30;;;;;;;2.45;1.00;;;;;;;;;;5083048;28;20040;-66
2021/03/20 07:37:55;;;;;;;1.52;0.93;;;;;;;;;;5082533;28;20040;-66
2021/03/20 07:40:33;;;;;;;1.42;1.00;;;;;;;;;;5079371;28;20040;-65
2021/03/20 07:43:19;;;;;;;1.08;0.90;;;;;;;;;;5084140;28;20063;-67
2021/03/20 07:45:45;;;;;;;2.40;1.08;;;;;;;;;;5076237;28;20044;-67
2021/03/20 07:48:24;;;;;;;2.60;1.10;;;;;;;;;;5083207;28;20486;-67
2021/03/20 07:51:10;;;;;;;1.83;0.88;;;;;;;;;;5057319;28;20172;-66
2021/03/20 07:53:46;;;;;;;2.10;1.10;;;;;;;;;;5060932;28;20129;-67
2021/03/20 07:56:11;;;;;;;1.67;0.93;;;;;;;;;;5060952;28;20041;-67
2021/03/20 07:58:45;;;;;;;1.85;1.15;;;;;;;;;;5084226;28;20123;-66
2021/03/20 08:01:20;;;;;;;1.27;0.70;;;;;;;;;;5074712;28;20616;-66
2021/03/20 08:03:56;;;;;;;1.73;0.85;;;;;;;;;;5074523;28;20952;-66
2021/03/20 08:06:25;;;;;;;2.15;0.80;;;;;;;;;;5084021;28;20068;-66
2021/03/20 08:09:28;;;;;;;1.65;0.65;;;;;;;;;;5076530;28;20044;-66
2021/03/20 08:11:59;;;;;;;1.73;0.85;;;;;;;;;;5084186;28;20074;-67
2021/03/20 08:14:47;;;;;;;1.00;0.60;;;;;;;;;;5083471;28;20049;-66
2021/03/20 08:17:15;;;;;;;1.25;0.60;;;;;;;;;;5061446;28;20095;-67
2021/03/20 08:19:41;;;;;;;1.40;0.80;;;;;;;;;;5081773;28;20087;-66
2021/03/20 08:22:40;;;;;;;0.90;0.55;;;;;;;;;;5081098;28;20730;-66
2021/03/20 08:25:40;;;;;;;1.92;0.68;;;;;;;;;;5083326;28;20044;-66
2021/03/20 08:28:30;;;;;;;1.45;0.70;;;;;;;;;;5082541;28;20154;-67
2021/03/20 08:31:20;;;;;;;1.08;0.50;;;;;;;;;;5082724;28;20049;-66
2021/03/20 08:34:05;;;;;;;0.77;0.50;;;;;;;;;;5082945;28;20040;-67
2021/03/20 08:36:55;;;;;;;1.48;0.50;;;;;;;;;;5065627;28;20052;-66
2021/03/20 08:39:41;;;;;;;1.92;0.70;;;;;;;;;;5081983;28;20127;-67
2021/03/20 08:42:24;;;;;;;1.65;0.70;;;;;;;;;;5081470;28;20045;-67
2021/03/20 08:45:23;;;;;;;1.17;0.63;;;;;;;;;;5084133;28;20083;-67
2021/03/20 08:48:14;;;;;;;1.80;1.05;;;;;;;;;;5080938;28;20040;-68
2021/03/20 08:51:04;;;;;;;1.85;1.00;;;;;;;;;;5083368;28;20124;-66
2021/03/20 08:53:49;;;;;;;2.15;1.10;;;;;;;;;;5083778;28;20044;-66
2021/03/20 08:56:37;;;;;;;1.50;0.90;;;;;;;;;;5065289;28;20550;-66
2021/03/20 08:59:05;;;;;;;1.25;0.70;;;;;;;;;;5083209;28;20045;-67
2021/03/20 09:01:37;;;;;;;1.23;0.60;;;;;;;;;;5061381;28;20091;-66
2021/03/20 09:04:03;;;;;;;;;;;;;;;;;;5075335;28;20040;-67
2021/03/20 09:06:33;;;;;;;0.77;0.50;;;;;;;;;;5074835;28;20394;-66
2021/03/20 09:09:06;;;;;;;1.15;0.50;;;;;;;;;;5064659;28;20044;-68
2021/03/20 09:11:36;;;;;;;0.70;0.50;;;;;;;;;;5058442;28;20502;-67
2021/03/20 09:14:12;;;;;;;1.17;0.50;;;;;;;;;;5084801;28;20052;-67
2021/03/20 09:16:52;;;;;;;1.00;0.50;;;;;;;;;;5067995;28;20123;-67
2021/03/20 09:19:27;;;;;;;0.82;0.43;;;;;;;;;;5067848;28;20863;-67
2021/03/20 09:22:07;;;;;;;0.38;0.30;;;;;;;;;;5083784;28;20052;-67
2021/03/20 09:24:33;;;;;;;0.45;0.32;;;;;;;;;;5068134;28;20047;-68
2021/03/20 09:26:59;;;;;;;0.57;0.45;;;;;;;;;;5081845;28;20060;-67
2021/03/20 09:29:29;;;;;;;0.30;0.30;;;;;;;;;;5079445;28;20750;-68
2021/03/20 09:31:55;;;;;;;0.32;0.32;;;;;;;;;;5086106;28;20048;-67
2021/03/20 09:34:37;;;;;;;0.95;0.50;;;;;;;;;;5090032;28;20641;-67
2021/03/20 09:37:07;;;;;;;;;;;;;;;;;;5086577;28;20433;-67
2021/03/20 09:39:42;;;;;;;0.30;0.28;;;;;;;;;;5085109;28;19928;-69
2021/03/20 09:42:29;;;;;;;1.63;0.40;;;;;;;;;;5076477;28;20486;-68
2021/03/20 09:45:07;;;;;;;0.47;0.38;;;;;;;;;;5084276;28;20156;-68
2021/03/20 09:47:54;;;;;;;0.38;0.28;;;;;;;;;;5074728;28;20449;-67
2021/03/20 09:50:19;;;;;;;0.30;0.30;;;;;;;;;;5082508;28;20049;-68
2021/03/20 09:53:11;;;;;;;0.90;0.20;;;;;;;;;;5085418;28;20399;-69
2021/03/20 09:55:44;;;;;;;0.70;0.30;;;;;;;;;;5058244;28;20045;-67
2021/03/20 09:58:32;;;;;;;0.20;0.20;;;;;;;;;;5086023;28;20048;-67
2021/03/20 10:00:57;;;;;;;0.38;0.20;;;;;;;;;;5073165;28;20091;-67
2021/03/20 10:03:43;;;;;;;0.60;0.40;;;;;;;;;;5085849;28;20965;-65
2021/03/20 10:06:20;;;;;;;0.40;0.20;;;;;;;;;;5076943;28;20536;-67
2021/03/20 10:08:48;;;;;;;0.60;0.43;;;;;;;;;;5083982;28;20044;-73
2021/03/20 10:11:35;;;;;;;0.75;0.38;;;;;;;;;;5085592;28;20033;-71
2021/03/20 10:14:02;;;;;;;0.25;0.22;;;;;;;;;;5085413;28;20567;-71
2021/03/20 10:16:30;;;;;;;1.35;0.30;;;;;;;;;;5060381;28;20091;-68
2021/03/20 10:19:10;;;;;;;0.82;0.20;;;;;;;;;;5084468;28;20064;-70
2021/03/20 10:21:36;;;;;;;1.17;0.40;;;;;;;;;;5089390;28;20479;-68
2021/03/20 10:24:21;;;;;;;0.82;0.40;;;;;;;;;;5083785;28;20052;-70
2021/03/20 10:26:55;;;;;;;0.47;0.32;;;;;;;;;;5066896;28;20045;-69
2021/03/20 10:29:20;;;;;;;1.60;0.40;;;;;;;;;;5081577;28;20494;-68
2021/03/20 10:31:51;;;;;;;1.23;0.47;;;;;;;;;;5085466;28;20036;-68
2021/03/20 10:34:21;;;;;;;0.40;0.40;;;;;;;;;;5067053;28;20493;-68
2021/03/20 10:37:03;;;;;;;0.40;0.30;;;;;;;;;;5085207;28;20700;-66
2021/03/20 10:39:32;;;;;;;0.80;0.40;;;;;;;;;;5085422;28;20052;-65
2021/03/20 10:42:08;;;;;;;1.40;0.40;;;;;;;;;;5083550;28;20135;-64
2021/03/20 10:44:39;;;;;;;1.20;0.40;;;;;;;;;;5076869;28;20042;-66
2021/03/20 10:47:13;;;;;;;2.20;0.45;;;;;;;;;;5074036;28;20041;-66
2021/03/20 10:49:57;;;;;;;0.77;0.40;;;;;;;;;;5075992;28;20049;-65
2021/03/20 10:52:27;;;;;;;1.13;0.50;;;;;;;;;;5076997;28;20138;-65
2021/03/20 10:54:53;;;;;;;0.60;0.30;;;;;;;;;;5060337;28;20079;-66
2021/03/20 10:57:24;;;;;;;0.60;0.38;;;;;;;;;;5058038;28;20681;-66
2021/03/20 10:59:50;;;;;;;0.82;0.40;;;;;;;;;;5060129;28;20047;-65
2021/03/20 11:02:22;;;;;;;0.55;0.40;;;;;;;;;;5085192;28;20059;-64
2021/03/20 11:04:48;;;;;;;0.98;0.45;;;;;;;;;;5084481;28;20527;-65
2021/03/20 11:07:21;;;;;;;1.88;0.57;;;;;;;;;;5066570;28;20040;-66
2021/03/20 11:09:47;;;;;;;1.38;0.50;;;;;;;;;;5084260;28;20040;-65
2021/03/20 11:12:28;;;;;;;1.17;0.43;;;;;;;;;;5084536;28;20094;-67
2021/03/20 11:14:58;;;;;;;1.33;0.40;;;;;;;;;;5079341;28;20048;-66
2021/03/20 11:17:25;;;;;;;1.15;0.57;;;;;;;;;;5058014;28;20059;-66
2021/03/20 11:20:05;;;;;;;1.60;0.50;;;;;;;;;;5075132;28;20064;-66
2021/03/20 11:22:37;;;;;;;0.95;0.50;;;;;;;;;;5066772;28;20087;-64
2021/03/20 11:25:10;;;;;;;1.27;0.60;;;;;;;;;;5066253;28;20071;-65
2021/03/20 11:27:37;;;;;;;1.02;0.68;;;;;;;;;;5083754;28;20048;-64
2021/03/20 11:30:18;;;;;;;2.35;0.60;;;;;;;;;;5084621;28;20046;-65
2021/03/20 11:32:45;;;;;;;0.70;0.50;;;;;;;;;;5068276;28;20098;-65
2021/03/20 11:35:19;;;;;;;0.55;0.50;;;;;;;;;;5049305;28;20044;-64
2021/03/20 11:37:45;;;;;;;1.23;0.60;;;;;;;;;;5084589;28;20040;-64
2021/03/20 11:40:32;;;;;;;1.00;0.50;;;;;;;;;;5065931;28;20503;-65
2021/03/20 11:43:05;;;;;;;0.75;0.50;;;;;;;;;;5058663;28;20049;-66
2021/03/20 11:45:36;;;;;;;0.85;0.60;;;;;;;;;;5075458;28;20110;-66
2021/03/20 11:48:11;;;;;;;0.88;0.60;;;;;;;;;;5075990;28;20043;-67
2021/03/20 11:50:36;;;;;;;0.95;0.43;;;;;;;;;;5075823;28;20569;-64
2021/03/20 11:53:21;;;;;;;1.98;0.77;;;;;;;;;;5079529;28;20052;-66
2021/03/20 11:55:46;;;;;;;0.50;0.50;;;;;;;;;;5049347;28;20074;-65
2021/03/20 11:58:27;;;;;;;1.98;0.77;;;;;;;;;;5082401;28;20617;-65
2021/03/20 12:00:52;;;;;;;1.25;0.60;;;;;;;;;;5078011;28;20501;-65
2021/03/20 12:03:21;;;;;;;0.55;0.55;;;;;;;;;;5077699;28;20036;-65
2021/03/20 12:05:47;;;;;;;1.08;0.60;;;;;;;;;;5083324;28;20045;-65
2021/03/20 12:08:26;;;;;;;1.15;0.60;;;;;;;;;;5081289;28;20483;-66
2021/03/20 12:11:06;;;;;;;0.80;0.50;;;;;;;;;;5077331;28;20044;-64
2021/03/20 12:13:37;;;;;;;1.75;0.70;;;;;;;;;;5081601;28;20047;-66
2021/03/20 12:16:03;;;;;;;1.60;0.57;;;;;;;;;;5083387;28;20048;-67
2021/03/20 12:18:29;;;;;;;1.83;0.77;;;;;;;;;;5082747;28;20044;-66
2021/03/20 12:20:54;;;;;;;1.70;0.70;;;;;;;;;;5072647;28;20094;-66
2021/03/20 12:23:21;;;;;;;1.55;0.70;;;;;;;;;;5058432;28;20040;-65
2021/03/20 12:25:55;;;;;;;1.63;0.70;;;;;;;;;;5056312;28;20072;-64
2021/03/20 12:28:26;;;;;;;0.63;0.50;;;;;;;;;;5083180;28;20053;-65
2021/03/20 12:31:08;;;;;;;0.95;0.57;;;;;;;;;;5083136;28;20071;-65
2021/03/20 12:33:52;;;;;;;;;;;;;;;;;;5083732;28;20477;-64
2021/03/20 12:36:24;;;;;;;0.88;0.52;;;;;;;;;;5083105;28;19920;-64
2021/03/20 12:38:49;;;;;;;0.47;0.45;;;;;;;;;;5083046;28;20048;-66
2021/03/20 12:41:16;;;;;;;0.75;0.50;;;;;;;;;;5081943;28;20052;-65
2021/03/20 12:43:42;;;;;;;0.70;0.50;;;;;;;;;;5081546;28;20084;-64
2021/03/20 12:46:09;;;;;;;0.47;0.45;;;;;;;;;;5083964;28;20040;-67
2021/03/20 12:48:37;;;;;;;0.77;0.55;;;;;;;;;;5084616;28;20048;-66
2021/03/20 12:51:05;;;;;;;1.50;0.70;;;;;;;;;;5068551;28;20098;-67
2021/03/20 12:53:31;;;;;;;0.80;0.60;;;;;;;;;;5085875;28;20882;-66
2021/03/20 12:55:56;;;;;;;0.85;0.60;;;;;;;;;;5086935;28;20102;-67
2021/03/20 12:58:22;;;;;;;0.80;0.50;;;;;;;;;;5086390;28;20040;-66
2021/03/20 13:00:47;;;;;;;0.68;0.55;;;;;;;;;;5086263;28;20483;-66
2021/03/20 13:03:13;;;;;;;1.77;0.75;;;;;;;;;;5084634;28;20098;-65
2021/03/20 13:05:39;;;;;;;1.58;0.93;;;;;;;;;;5080635;28;20494;-65
2021/03/20 13:08:05;;;;;;;1.30;0.90;;;;;;;;;;5025410;28;20040;-67
2021/03/20 13:10:31;;;;;;;0.80;0.68;;;;;;;;;;5081659;28;20044;-64
2021/03/20 13:12:56;;;;;;;2.70;1.90;;;;;;;;;;5086482;28;20328;-67
2021/03/20 13:15:22;;;;;;;0.95;0.60;;;;;;;;;;5078711;28;20516;-65
2021/03/20 13:17:48;;;;;;;0.65;0.50;;;;;;;;;;5086161;28;20040;-65
2021/03/20 13:20:14;;;;;;;1.83;0.77;;;;;;;;;;5086620;28;20123;-63
2021/03/20 13:22:39;;;;;;;0.55;0.40;;;;;;;;;;5078289;28;20041;-63
2021/03/20 13:25:06;;;;;;;1.00;0.63;;;;;;;;;;5085885;28;20071;-64
2021/03/20 13:27:31;;;;;;;0.88;0.70;;;;;;;;;;5086429;28;20044;-64
2021/03/20 13:29:57;;;;;;;1.58;0.70;;;;;;;;;;5086363;28;20040;-65
2021/03/20 13:32:23;;;;;;;1.38;0.63;;;;;;;;;;5084299;28;20044;-64
2021/03/20 13:34:48;;;;;;;0.60;0.60;;;;;;;;;;5077709;28;20045;-64
2021/03/20 13:37:14;;;;;;;0.90;0.60;;;;;;;;;;5086709;28;20098;-64
2021/03/20 13:39:39;;;;;;;1.65;0.80;;;;;;;;;;5086415;28;20040;-64
2021/03/20 13:42:05;;;;;;;2.13;0.70;;;;;;;;;;5086229;28;20044;-64
2021/03/20 13:44:31;;;;;;;1.73;0.80;;;;;;;;;;5079682;28;20111;-64
2021/03/20 13:46:56;;;;;;;1.27;0.90;;;;;;;;;;5085641;28;20046;-65
2021/03/20 13:49:22;;;;;;;1.15;0.73;;;;;;;;;;5066837;28;20040;-65
2021/03/20 13:51:47;;;;;;;1.48;1.00;;;;;;;;;;5076345;28;20040;-65
2021/03/20 13:54:13;;;;;;;1.17;0.90;;;;;;;;;;5085753;28;20056;-64
2021/03/20 13:56:38;;;;;;;2.15;0.95;;;;;;;;;;5086129;28;20040;-65
2021/03/20 13:59:04;;;;;;;1.10;0.77;;;;;;;;;;5077112;28;20044;-65
2021/03/20 14:01:29;;;;;;;1.73;0.80;;;;;;;;;;5085979;28;20037;-66
2021/03/20 14:03:56;;;;;;;1.48;0.70;;;;;;;;;;5070828;28;20040;-64
2021/03/20 14:06:23;;;;;;;1.63;0.90;;;;;;;;;;5081676;28;20047;-64
2021/03/20 14:08:49;;;;;;;1.13;0.90;;;;;;;;;;5085106;28;20075;-66
2021/03/20 14:11:14;;;;;;;1.98;0.98;;;;;;;;;;5077435;28;20123;-65
2021/03/20 14:13:40;;;;;;;1.52;0.80;;;;;;;;;;5085587;28;20041;-65
2021/03/20 14:16:06;;;;;;;1.10;0.80;;;;;;;;;;5067494;28;20097;-64
2021/03/20 14:18:31;;;;;;;1.48;0.80;;;;;;;;;;5083836;28;20048;-65
2021/03/20 14:20:58;;;;;;;2.40;1.00;;;;;;;;;;5085731;28;20044;-66
2021/03/20 14:23:24;;;;;;;1.05;0.80;;;;;;;;;;5084262;28;20044;-65
2021/03/20 14:25:49;;;;;;;1.25;0.80;;;;;;;;;;5081823;28;20045;-66
2021/03/20 14:28:15;;;;;;;1.45;0.88;;;;;;;;;;5085813;28;20043;-66
2021/03/20 14:30:42;;;;;;;2.15;0.90;;;;;;;;;;5084623;28;20052;-66
2021/03/20 14:33:08;;;;;;;1.05;0.73;;;;;;;;;;5085436;28;20040;-66
2021/03/20 14:35:34;;;;;;;1.88;1.23;;;;;;;;;;5076448;28;20052;-65
2021/03/20 14:37:59;;;;;;;1.23;0.75;;;;;;;;;;5085038;28;20893;-65
2021/03/20 14:40:30;;;;;;;1.75;0.90;;;;;;;;;;5083527;28;20481;-66
2021/03/20 14:42:56;;;;;;;2.45;1.10;;;;;;;;;;5067109;28;20052;-65
2021/03/20 14:45:21;;;;;;;1.83;0.90;;;;;;;;;;5084192;28;20904;-65
2021/03/20 14:47:47;;;;;;;1.58;1.05;;;;;;;;;;5076658;28;20044;-65
2021/03/20 14:50:20;;;;;;;1.13;0.68;;;;;;;;;;5084091;28;20182;-65
2021/03/20 14:52:46;;;;;;;1.58;1.00;;;;;;;;;;5084728;28;20973;-66
2021/03/20 14:55:12;;;;;;;1.25;0.82;;;;;;;;;;5084866;28;20036;-64
2021/03/20 14:57:38;;;;;;;1.73;0.93;;;;;;;;;;5083546;28;20573;-64
2021/03/20 15:00:21;;;;;;;1.10;0.85;;;;;;;;;;5082309;28;20083;-64
2021/03/20 15:02:46;;;;;;;1.20;0.98;;;;;;;;;;5084710;28;20045;-66
2021/03/20 15:05:12;;;;;;;2.63;1.20;;;;;;;;;;5084497;28;20043;-66
2021/03/20 15:07:37;;;;;;;1.33;1.10;;;;;;;;;;5084062;28;20478;-65
2021/03/20 15:10:08;;;;;;;1.70;1.00;;;;;;;;;;5083352;28;20049;-66
2021/03/20 15:12:33;;;;;;;1.58;0.80;;;;;;;;;;5076884;28;20040;-64
2021/03/20 15:14:59;;;;;;;1.60;1.20;;;;;;;;;;5084063;28;20044;-64